Naomi, South Dakota
Current Conditions -  °F | °C
As of 4:27 AM on Sunday 25 Jan 2015 (Local Time) from KFSD Reporting Station
Light Snow Light Snow  
Wind Chill: 23°   Ceiling: 900
Heat Index: 33°   Visibility: 4mi
Dew Point: 31°   Wind: 16mph
Humidity: 92%   Direction: 360°N
Pressure: 29.8"   Gusts: NA
Location:  43.3014°N, 96.8655°W
Report Text: KFSD 251027Z AUTO 36014KT 4SM -SN BR OVC009 01/M01 A2980 RMK AO2 P0001 T00061006
Loading
Personal Weather Stations






























Interactive Weather Map New forecast layout! Learn more

10-Day Weather Forecast

Advertisements
Track Severe Weather on mobile